Time;durP1;ratioP1;P1;durP2;ratioP2;P2;SDS_P1;SDS_P2;PMS_P1;PMS_P2;Temp;Humidity;BMP_temperature;BMP_pressure;BME280_temperature;BME280_humidity;BME280_pressure;Samples;Min_cycle;Max_cycle;Signal;HPM_P1;HPM_P2
2021/06/25 00:00:45;;;;;;;14.18;7.88;;;;;;;14.98;100.00;101620.00;6325814;28;20048;-76
2021/06/25 00:03:47;;;;;;;15.15;8.35;;;;;;;14.95;100.00;101614.91;6325575;28;20048;-74
2021/06/25 00:06:49;;;;;;;16.77;8.07;;;;;;;14.95;100.00;101612.28;6325876;28;20048;-75
2021/06/25 00:09:50;;;;;;;10.48;7.72;;;;;;;14.94;100.00;101609.69;6325663;28;20059;-76
2021/06/25 00:12:51;;;;;;;11.30;8.45;;;;;;;14.89;100.00;101609.94;6325398;28;20048;-75
2021/06/25 00:15:53;;;;;;;13.80;8.05;;;;;;;14.92;100.00;101607.13;6326578;28;20040;-75
2021/06/25 00:18:56;;;;;;;19.20;7.95;;;;;;;14.92;100.00;101604.50;6325244;28;20052;-75
2021/06/25 00:21:58;;;;;;;10.43;7.22;;;;;;;14.89;100.00;101604.66;6325148;28;20418;-75
2021/06/25 00:24:59;;;;;;;11.02;6.85;;;;;;;14.85;100.00;101608.44;6325351;28;20050;-75
2021/06/25 00:28:01;;;;;;;12.30;8.15;;;;;;;14.79;100.00;101614.06;6325310;28;20043;-77
2021/06/25 00:31:02;;;;;;;13.40;7.55;;;;;;;14.75;100.00;101623.13;6324744;28;20047;-75
2021/06/25 00:34:05;;;;;;;7.53;6.38;;;;;;;14.80;99.08;101620.22;6326190;28;20424;-75
2021/06/25 00:37:07;;;;;;;12.40;6.53;;;;;;;14.69;98.67;101618.19;6325245;28;20048;-74
2021/06/25 00:40:09;;;;;;;12.05;6.85;;;;;;;14.62;98.92;101606.25;6324768;28;20048;-76
2021/06/25 00:43:11;;;;;;;9.65;7.85;;;;;;;14.60;100.00;101601.03;6323615;28;20510;-77
2021/06/25 00:46:12;;;;;;;12.13;6.88;;;;;;;14.68;100.00;101601.47;6326062;28;20055;-77
2021/06/25 00:49:16;;;;;;;16.17;7.22;;;;;;;14.73;100.00;101603.84;6324672;28;20572;-76
2021/06/25 00:52:18;;;;;;;9.35;6.00;;;;;;;14.81;100.00;101619.31;6324731;28;20052;-76
2021/06/25 00:55:20;;;;;;;14.27;7.35;;;;;;;14.66;99.23;101616.56;6324457;28;20491;-76
2021/06/25 00:58:22;;;;;;;13.05;7.35;;;;;;;14.68;100.00;101621.78;6324365;28;20059;-76
2021/06/25 01:01:23;;;;;;;8.75;6.90;;;;;;;14.64;99.77;101620.25;6324356;28;20044;-76
2021/06/25 01:04:26;;;;;;;13.15;6.82;;;;;;;14.63;99.47;101615.91;6324754;28;20138;-75
2021/06/25 01:07:31;;;;;;;10.77;7.05;;;;;;;14.65;100.00;101614.00;6324226;28;20419;-75
2021/06/25 01:10:32;;;;;;;10.40;7.10;;;;;;;14.70;100.00;101609.31;6324113;28;20051;-75
2021/06/25 01:13:37;;;;;;;9.68;7.15;;;;;;;14.76;100.00;101606.34;6323976;28;20055;-77
2021/06/25 01:16:40;;;;;;;14.45;7.93;;;;;;;14.75;100.00;101619.63;6325059;28;20127;-75
2021/06/25 01:19:43;;;;;;;11.30;7.45;;;;;;;14.73;100.00;101622.38;6323876;28;20055;-76
2021/06/25 01:22:46;;;;;;;11.18;6.93;;;;;;;14.70;100.00;101626.03;6323714;28;20048;-75
2021/06/25 01:25:47;;;;;;;13.15;7.10;;;;;;;14.60;100.00;101630.16;6324001;28;20423;-77
2021/06/25 01:28:49;;;;;;;10.95;8.20;;;;;;;14.61;100.00;101629.19;6323430;28;20055;-77
2021/06/25 01:31:51;;;;;;;11.93;7.40;;;;;;;14.67;100.00;101634.16;6323562;28;20418;-77
2021/06/25 01:34:53;;;;;;;11.50;7.97;;;;;;;14.70;100.00;101627.81;6323530;28;20051;-76
2021/06/25 01:37:55;;;;;;;10.95;7.53;;;;;;;14.69;100.00;101623.47;6323735;28;20391;-74
2021/06/25 01:40:58;;;;;;;11.52;7.00;;;;;;;14.62;100.00;101622.09;6323205;28;20530;-75
2021/06/25 01:44:00;;;;;;;13.48;7.05;;;;;;;14.55;100.00;101604.91;6323362;28;20059;-75
2021/06/25 01:47:02;;;;;;;9.57;7.22;;;;;;;14.49;100.00;101602.56;6324602;28;20044;-77
2021/06/25 01:50:06;;;;;;;11.98;7.45;;;;;;;14.47;100.00;101607.94;6323124;28;20044;-75
2021/06/25 01:53:12;;;;;;;9.55;7.45;;;;;;;14.50;100.00;101605.16;6323216;28;20048;-76
2021/06/25 01:56:13;;;;;;;13.00;8.55;;;;;;;14.56;100.00;101601.31;6322950;28;20059;-75
2021/06/25 01:59:15;;;;;;;14.60;8.57;;;;;;;14.53;100.00;101604.97;6322897;28;20054;-76
2021/06/25 02:02:16;;;;;;;11.40;7.97;;;;;;;14.57;100.00;101606.50;6322842;28;20044;-75
2021/06/25 02:05:17;;;;;;;10.68;7.88;;;;;;;14.59;100.00;101599.34;6322973;28;20052;-75
2021/06/25 02:08:20;;;;;;;11.07;7.85;;;;;;;14.58;100.00;101594.13;6322877;28;20131;-77
2021/06/25 02:11:23;;;;;;;11.75;8.55;;;;;;;14.56;100.00;101588.94;6322234;28;20052;-76
2021/06/25 02:14:24;;;;;;;16.55;8.07;;;;;;;14.55;100.00;101587.22;6328301;28;20043;-75
2021/06/25 02:17:25;;;;;;;13.57;9.45;;;;;;;14.50;100.00;101578.69;6348121;28;20080;-75
2021/06/25 02:20:27;;;;;;;16.42;9.02;;;;;;;14.45;100.00;101586.00;6347671;28;20078;-75
2021/06/25 02:23:30;;;;;;;14.55;8.80;;;;;;;14.40;100.00;101580.97;6347272;28;20052;-75
2021/06/25 02:26:31;;;;;;;12.25;9.32;;;;;;;14.37;100.00;101581.16;6347771;28;20047;-74
2021/06/25 02:29:33;;;;;;;14.30;10.02;;;;;;;14.28;100.00;101571.09;6348059;28;20051;-75
2021/06/25 02:32:34;;;;;;;15.40;9.90;;;;;;;14.19;100.00;101574.22;6347625;28;20060;-75
2021/06/25 02:35:36;;;;;;;12.05;9.07;;;;;;;14.16;100.00;101566.47;6347356;28;20044;-75
2021/06/25 02:38:39;;;;;;;17.65;9.80;;;;;;;14.11;100.00;101568.50;6347484;28;20051;-78
2021/06/25 02:41:40;;;;;;;11.65;8.75;;;;;;;14.07;100.00;101575.75;6347183;28;20052;-76
2021/06/25 02:44:42;;;;;;;16.85;9.75;;;;;;;13.99;100.00;101567.41;6339780;28;20050;-76
2021/06/25 02:47:44;;;;;;;14.23;9.50;;;;;;;14.03;100.00;101574.22;6322258;28;20047;-74
2021/06/25 02:50:45;;;;;;;14.82;9.65;;;;;;;14.08;100.00;101560.75;6346835;28;20051;-77
2021/06/25 02:53:48;;;;;;;12.93;9.88;;;;;;;14.10;100.00;101554.44;6346792;28;20051;-74
2021/06/25 02:56:49;;;;;;;19.85;10.60;;;;;;;14.11;100.00;101550.84;6347215;28;20050;-75
2021/06/25 02:59:50;;;;;;;18.95;10.55;;;;;;;14.11;100.00;101552.66;6346946;28;20047;-74
2021/06/25 03:02:52;;;;;;;15.02;10.15;;;;;;;14.11;100.00;101563.22;6347394;28;20044;-74
2021/06/25 03:05:53;;;;;;;17.38;10.55;;;;;;;14.12;100.00;101563.13;6346139;28;20047;-75
2021/06/25 03:08:56;;;;;;;15.70;10.70;;;;;;;14.10;100.00;101567.66;6346834;28;20059;-75
2021/06/25 03:11:57;;;;;;;14.73;11.05;;;;;;;14.09;100.00;101565.97;6346179;28;20414;-77
2021/06/25 03:14:59;;;;;;;14.77;10.70;;;;;;;14.04;100.00;101559.22;6339381;28;20427;-76
2021/06/25 03:18:01;;;;;;;16.98;10.95;;;;;;;13.99;100.00;101548.91;6321436;28;20511;-75
2021/06/25 03:21:02;;;;;;;13.45;10.35;;;;;;;14.01;100.00;101559.38;6320880;28;20044;-75
2021/06/25 03:24:06;;;;;;;15.90;11.00;;;;;;;14.01;100.00;101551.47;6321609;28;20056;-75
2021/06/25 03:27:08;;;;;;;16.15;11.85;;;;;;;14.01;100.00;101548.81;6321331;28;20040;-75
2021/06/25 03:30:11;;;;;;;16.98;10.98;;;;;;;14.01;100.00;101554.09;6321021;28;20044;-75
2021/06/25 03:33:12;;;;;;;16.90;11.30;;;;;;;14.04;100.00;101549.50;6321607;28;20047;-75
2021/06/25 03:36:14;;;;;;;18.40;10.70;;;;;;;14.08;100.00;101558.97;6321082;28;20414;-75
2021/06/25 03:39:17;;;;;;;19.27;10.07;;;;;;;14.02;100.00;101563.72;6320943;28;20410;-77
2021/06/25 03:42:18;;;;;;;18.92;10.27;;;;;;;13.93;100.00;101557.16;6321177;28;20059;-74
2021/06/25 03:45:20;;;;;;;20.77;11.18;;;;;;;13.90;100.00;101558.19;6322194;28;20396;-77
2021/06/25 03:48:21;;;;;;;23.67;11.75;;;;;;;13.92;100.00;101560.75;6321159;28;20048;-76
2021/06/25 03:51:23;;;;;;;15.88;11.15;;;;;;;14.00;100.00;101555.03;6320897;28;20499;-76
2021/06/25 03:54:25;;;;;;;18.10;11.70;;;;;;;14.05;100.00;101563.56;6320798;28;20059;-74
2021/06/25 03:57:27;;;;;;;18.35;11.85;;;;;;;14.07;100.00;101559.03;6320858;28;20491;-77
2021/06/25 04:00:29;;;;;;;21.58;11.52;;;;;;;14.09;100.00;101552.75;6323119;28;20040;-77
2021/06/25 04:03:30;;;;;;;15.30;11.73;;;;;;;14.11;100.00;101548.22;6330767;28;20411;-73
2021/06/25 04:06:31;;;;;;;15.50;10.98;;;;;;;14.09;100.00;101555.38;6327760;28;20048;-74
2021/06/25 04:09:35;;;;;;;24.52;11.63;;;;;;;14.00;100.00;101560.31;6325143;28;20499;-73
2021/06/25 04:12:38;;;;;;;16.55;11.38;;;;;;;13.91;100.00;101559.03;6331677;28;20043;-73
2021/06/25 04:15:39;;;;;;;19.77;12.48;;;;;;;13.91;100.00;101553.75;6330999;28;20048;-74
2021/06/25 04:18:41;;;;;;;17.23;11.60;;;;;;;13.94;100.00;101548.28;6337013;28;20047;-73
2021/06/25 04:21:43;;;;;;;19.77;12.27;;;;;;;13.98;100.00;101541.03;6335331;28;20039;-73
2021/06/25 04:24:45;;;;;;;22.20;12.32;;;;;;;13.93;100.00;101546.59;6337650;28;20090;-75
2021/06/25 04:27:47;;;;;;;17.88;12.18;;;;;;;14.01;100.00;101546.16;6335056;28;20056;-75
2021/06/25 04:30:48;;;;;;;17.85;12.02;;;;;;;13.99;100.00;101540.97;6334565;28;20044;-75
2021/06/25 04:33:50;;;;;;;22.27;12.23;;;;;;;13.95;100.00;101537.66;6324947;28;20048;-75
2021/06/25 04:36:51;;;;;;;17.90;13.07;;;;;;;13.91;100.00;101540.53;6324952;28;20048;-75
2021/06/25 04:39:54;;;;;;;18.17;12.77;;;;;;;13.98;100.00;101541.91;6324598;28;20700;-75
2021/06/25 04:42:55;;;;;;;20.45;13.52;;;;;;;14.00;100.00;101547.13;6328512;28;20418;-75
2021/06/25 04:45:58;;;;;;;18.23;12.02;;;;;;;14.07;100.00;101545.81;6325949;28;20047;-75
2021/06/25 04:49:00;;;;;;;15.82;11.55;;;;;;;14.10;100.00;101554.44;6324508;28;20411;-75
2021/06/25 04:52:01;;;;;;;17.83;12.45;;;;;;;14.04;100.00;101541.56;6324759;28;20052;-75
2021/06/25 04:55:05;;;;;;;18.08;12.43;;;;;;;14.13;100.00;101549.00;6324625;28;20048;-76
2021/06/25 04:58:08;;;;;;;19.52;11.90;;;;;;;14.17;100.00;101544.38;6324555;28;20044;-76
2021/06/25 05:01:09;;;;;;;19.13;12.13;;;;;;;14.17;100.00;101542.59;6324110;28;20059;-76
2021/06/25 05:04:10;;;;;;;21.77;11.73;;;;;;;14.25;100.00;101536.03;6324226;28;20605;-76
2021/06/25 05:07:12;;;;;;;17.00;11.68;;;;;;;14.31;100.00;101538.34;6324168;28;20052;-76
2021/06/25 05:10:14;;;;;;;17.30;12.00;;;;;;;14.34;100.00;101524.94;6324163;28;20044;-76
2021/06/25 05:13:17;;;;;;;19.50;12.13;;;;;;;14.38;100.00;101529.09;6325451;22;20048;-69
2021/06/25 05:16:18;;;;;;;16.27;11.27;;;;;;;14.37;100.00;101528.25;6284792;28;20047;-70
2021/06/25 05:19:20;;;;;;;18.60;11.77;;;;;;;14.32;100.00;101521.53;6283731;28;20044;-69
2021/06/25 05:22:21;;;;;;;19.58;11.70;;;;;;;14.30;100.00;101526.03;6286066;28;20415;-69
2021/06/25 05:25:24;;;;;;;16.58;11.48;;;;;;;14.30;100.00;101528.69;6288293;28;20044;-70
2021/06/25 05:28:25;;;;;;;19.90;11.70;;;;;;;14.39;100.00;101530.81;6297672;28;20051;-70
2021/06/25 05:31:28;;;;;;;17.63;11.20;;;;;;;14.46;100.00;101529.53;6298653;28;20049;-69
2021/06/25 05:34:30;;;;;;;24.38;11.25;;;;;;;14.54;100.00;101532.63;6298330;28;20185;-70
2021/06/25 05:37:31;;;;;;;16.35;11.52;;;;;;;14.43;100.00;101534.97;6298485;28;20047;-70
2021/06/25 05:40:35;;;;;;;16.50;11.02;;;;;;;14.52;100.00;101539.78;6298350;28;20044;-69
2021/06/25 05:43:36;;;;;;;18.23;10.38;;;;;;;14.58;100.00;101533.28;6298339;28;20049;-69
2021/06/25 05:46:38;;;;;;;17.80;11.55;;;;;;;14.64;100.00;101533.78;6274885;28;20052;-70
2021/06/25 05:49:40;;;;;;;24.30;11.52;;;;;;;14.71;100.00;101539.56;6272943;28;20098;-70
2021/06/25 05:52:41;;;;;;;24.15;12.07;;;;;;;14.75;100.00;101532.31;6273505;28;20563;-71
2021/06/25 05:55:44;;;;;;;19.58;11.88;;;;;;;14.80;100.00;101540.81;6273458;28;20079;-70
2021/06/25 05:58:46;;;;;;;17.98;10.90;;;;;;;14.78;100.00;101540.09;6272975;28;20504;-71
2021/06/25 06:01:47;;;;;;;13.82;9.95;;;;;;;14.77;100.00;101541.03;6273036;28;20045;-71
2021/06/25 06:04:48;;;;;;;14.93;9.68;;;;;;;14.77;100.00;101548.97;6272807;28;20049;-71
2021/06/25 06:07:50;;;;;;;11.73;9.13;;;;;;;14.87;100.00;101544.84;6283507;28;20044;-71
2021/06/25 06:10:52;;;;;;;15.93;9.30;;;;;;;14.92;100.00;101548.91;6297529;28;20055;-71
2021/06/25 06:13:54;;;;;;;14.05;7.90;;;;;;;15.00;100.00;101556.41;6297198;28;20509;-70
2021/06/25 06:16:57;;;;;;;10.25;7.38;;;;;;;15.07;99.78;101551.59;6284690;28;20051;-70
2021/06/25 06:19:58;;;;;;;13.25;7.25;;;;;;;15.07;100.00;101541.00;6274938;28;20427;-70
2021/06/25 06:33:03;;;;;;;24.08;9.75;;;;;;;15.29;100.00;101552.00;6295758;28;20056;-72
2021/06/25 06:36:15;;;;;;;17.00;8.85;;;;;;;15.32;100.00;101553.63;6272420;28;20053;-70
2021/06/25 06:39:18;;;;;;;17.60;9.65;;;;;;;15.34;100.00;101552.59;6271402;28;20044;-71
2021/06/25 06:42:21;;;;;;;13.43;8.13;;;;;;;15.39;100.00;101561.09;6290940;28;20102;-71
2021/06/25 06:45:22;;;;;;;13.82;8.30;;;;;;;15.43;100.00;101562.63;6296710;28;20052;-73
2021/06/25 06:48:23;;;;;;;9.63;6.60;;;;;;;15.48;100.00;101560.53;6295007;28;20075;-72
2021/06/25 06:51:25;;;;;;;13.48;7.28;;;;;;;15.42;99.65;101568.03;6294210;28;20045;-72
2021/06/25 06:54:26;;;;;;;8.75;6.93;;;;;;;15.42;99.90;101566.22;6295996;28;20487;-72
2021/06/25 06:57:29;;;;;;;16.13;7.70;;;;;;;15.36;99.63;101571.91;6295844;28;20056;-72
2021/06/25 07:00:30;;;;;;;9.95;7.53;;;;;;;15.32;99.21;101567.72;6295043;28;20052;-69
2021/06/25 07:03:32;;;;;;;12.25;7.15;;;;;;;15.27;100.00;101563.66;6281418;28;20051;-72
2021/06/25 07:06:33;;;;;;;11.30;7.65;;;;;;;15.22;100.00;101567.44;6294999;28;20059;-72
2021/06/25 07:09:35;;;;;;;12.73;7.68;;;;;;;15.18;100.00;101573.00;6296617;28;20518;-72
2021/06/25 07:12:39;;;;;;;12.18;7.93;;;;;;;15.18;100.00;101575.66;6294158;28;22275;-73
2021/06/25 07:15:41;;;;;;;11.25;7.45;;;;;;;15.18;100.00;101575.66;6280679;28;20426;-71
2021/06/25 07:18:42;;;;;;;12.15;8.45;;;;;;;15.18;100.00;101573.84;6289405;28;20040;-71
2021/06/25 07:21:44;;;;;;;12.18;8.32;;;;;;;15.14;100.00;101563.53;6296002;28;20056;-70
2021/06/25 07:24:45;;;;;;;20.15;9.15;;;;;;;15.13;100.00;101564.50;6296523;28;20052;-72
2021/06/25 07:27:48;;;;;;;10.70;7.82;;;;;;;15.14;100.00;101561.75;6296039;28;20045;-70
2021/06/25 07:30:49;;;;;;;14.73;9.63;;;;;;;15.11;100.00;101569.84;6295392;28;20050;-71
2021/06/25 07:33:51;;;;;;;16.52;10.27;;;;;;;15.14;100.00;101574.97;6292852;28;20041;-71
2021/06/25 07:36:53;;;;;;;13.60;9.55;;;;;;;15.16;100.00;101561.63;6291286;28;20049;-71
2021/06/25 07:39:54;;;;;;;15.70;10.20;;;;;;;15.20;100.00;101568.47;6295659;28;20064;-71
2021/06/25 07:42:57;;;;;;;17.45;10.73;;;;;;;15.23;100.00;101569.13;6295435;28;20051;-71
2021/06/25 07:45:58;;;;;;;17.00;11.10;;;;;;;15.28;100.00;101566.22;6295892;28;20059;-71
2021/06/25 07:48:59;;;;;;;18.38;9.75;;;;;;;15.31;100.00;101566.03;6295899;28;20041;-71
2021/06/25 07:52:01;;;;;;;14.38;10.80;;;;;;;15.35;100.00;101564.03;6298247;28;20070;-70
2021/06/25 07:55:04;;;;;;;18.42;10.27;;;;;;;15.43;100.00;101564.44;6300751;28;20439;-71
2021/06/25 07:58:06;;;;;;;11.45;7.90;;;;;;;15.52;100.00;101563.88;6300765;28;20049;-70
2021/06/25 08:01:08;;;;;;;16.40;10.13;;;;;;;15.61;100.00;101562.44;6300500;28;20487;-71
2021/06/25 08:04:09;;;;;;;13.27;9.23;;;;;;;15.72;100.00;101566.19;6298777;28;20052;-70
2021/06/25 08:07:10;;;;;;;15.98;9.43;;;;;;;15.81;100.00;101564.78;6299604;28;20055;-71
2021/06/25 08:10:12;;;;;;;15.07;10.18;;;;;;;15.87;100.00;101563.53;6300205;28;20052;-70
2021/06/25 08:13:14;;;;;;;12.65;9.10;;;;;;;15.95;100.00;101561.25;6300079;28;20044;-70
2021/06/25 08:16:16;;;;;;;12.50;8.32;;;;;;;16.07;100.00;101562.25;6300379;28;20048;-73
2021/06/25 08:19:17;;;;;;;12.65;8.70;;;;;;;16.11;100.00;101561.13;6299964;28;20044;-70
2021/06/25 08:22:18;;;;;;;14.27;8.93;;;;;;;16.13;100.00;101553.94;6299583;28;20403;-71
2021/06/25 08:25:20;;;;;;;12.40;8.25;;;;;;;16.21;100.00;101541.00;6299880;28;20055;-71
2021/06/25 08:28:23;;;;;;;13.80;8.90;;;;;;;16.23;100.00;101549.75;6299976;28;20048;-71
2021/06/25 08:31:25;;;;;;;18.00;8.25;;;;;;;16.34;100.00;101549.88;6299685;28;20130;-71
2021/06/25 08:34:26;;;;;;;12.85;8.88;;;;;;;16.34;100.00;101546.38;6296380;28;20051;-70
2021/06/25 08:37:27;;;;;;;15.73;8.80;;;;;;;16.44;100.00;101547.47;6288193;28;20071;-72
2021/06/25 08:40:29;;;;;;;12.38;7.35;;;;;;;16.49;100.00;101548.06;6299126;28;20055;-70
2021/06/25 08:43:33;;;;;;;13.60;8.80;;;;;;;16.58;100.00;101541.28;6295906;28;20044;-75
2021/06/25 08:46:35;;;;;;;14.00;10.05;;;;;;;16.68;99.11;101542.41;6309964;28;20048;-72
2021/06/25 08:49:38;;;;;;;13.13;9.23;;;;;;;16.67;98.96;101544.19;6299261;28;20048;-73
2021/06/25 08:52:42;;;;;;;15.80;9.60;;;;;;;16.81;98.50;101535.34;6299234;28;20051;-72
2021/06/25 08:55:44;;;;;;;13.90;10.57;;;;;;;16.70;96.52;101536.00;6299087;28;20123;-71
2021/06/25 08:58:47;;;;;;;14.18;9.98;;;;;;;16.74;97.38;101536.69;6298887;28;20041;-71
2021/06/25 09:01:49;;;;;;;14.10;9.65;;;;;;;16.79;97.44;101536.38;6285956;28;20049;-71
2021/06/25 09:04:51;;;;;;;16.95;10.95;;;;;;;16.79;97.26;101526.63;6276132;28;20048;-70
2021/06/25 09:07:54;;;;;;;17.00;10.90;;;;;;;16.73;97.36;101519.06;6286657;28;20040;-73
2021/06/25 09:10:59;;;;;;;19.17;11.07;;;;;;;16.72;97.09;101526.19;6285180;28;20049;-71
2021/06/25 09:14:04;;;;;;;13.60;10.50;;;;;;;16.80;97.81;101527.47;6275950;28;20520;-72
2021/06/25 09:17:06;;;;;;;21.27;11.15;;;;;;;16.84;94.38;101521.00;6276241;28;20049;-73
2021/06/25 09:20:08;;;;;;;19.70;11.20;;;;;;;16.95;91.80;101519.34;6273722;28;20053;-73
2021/06/25 09:23:11;;;;;;;17.30;11.57;;;;;;;16.95;89.72;101526.47;6298218;28;20056;-72
2021/06/25 09:26:13;;;;;;;25.30;12.55;;;;;;;17.05;90.76;101513.41;6298676;28;20055;-73
2021/06/25 09:29:17;;;;;;;16.92;12.75;;;;;;;17.65;87.08;101510.09;6297760;28;20052;-72
2021/06/25 09:32:19;;;;;;;20.65;14.10;;;;;;;17.62;85.19;101512.94;6298561;28;20055;-70
2021/06/25 09:35:22;;;;;;;21.95;15.25;;;;;;;17.72;82.61;101511.34;6291852;28;20052;-71
2021/06/25 09:38:34;;;;;;;25.60;16.42;;;;;;;17.71;82.02;101509.63;6273053;28;20052;-70
2021/06/25 09:41:36;;;;;;;26.27;15.82;;;;;;;17.73;81.09;101505.06;6271933;28;20045;-73
2021/06/25 09:44:39;;;;;;;22.95;14.75;;;;;;;17.77;81.59;101503.09;6271951;28;20049;-73
2021/06/25 09:47:42;;;;;;;21.13;13.93;;;;;;;17.78;82.08;101505.63;6273392;28;20056;-73
2021/06/25 09:50:45;;;;;;;22.60;15.65;;;;;;;17.77;83.54;101503.94;6272863;28;20135;-73
2021/06/25 09:54:01;;;;;;;21.85;13.73;;;;;;;17.74;83.79;101505.00;6273289;28;20052;-73
2021/06/25 09:57:07;;;;;;;25.45;15.65;;;;;;;17.74;82.33;101505.00;6272933;28;20504;-73
2021/06/25 10:00:11;;;;;;;24.55;15.32;;;;;;;18.09;80.89;101498.94;6272723;28;20179;-73
2021/06/25 10:03:13;;;;;;;22.55;15.82;;;;;;;18.11;79.35;101499.66;6271820;28;20488;-71
2021/06/25 10:06:17;;;;;;;25.38;15.88;;;;;;;18.00;79.76;101489.81;6273419;28;20079;-73
2021/06/25 10:09:18;;;;;;;20.38;15.48;;;;;;;18.14;79.93;101485.31;6295519;28;20526;-72
2021/06/25 10:12:21;;;;;;;22.35;13.10;;;;;;;18.35;77.74;101486.41;6296323;28;20129;-73
2021/06/25 10:15:24;;;;;;;20.35;13.10;;;;;;;18.54;74.86;101491.19;6278351;28;20063;-73
2021/06/25 10:18:30;;;;;;;22.48;14.35;;;;;;;18.52;70.28;101490.44;6272670;28;20048;-73
2021/06/25 10:21:33;;;;;;;24.45;13.95;;;;;;;18.82;68.74;101479.31;6272360;28;20056;-73
2021/06/25 10:24:36;;;;;;;25.27;13.20;;;;;;;18.94;68.60;101483.72;6272774;28;20069;-73
2021/06/25 10:27:40;;;;;;;15.32;11.05;;;;;;;19.01;69.80;101470.75;6272402;28;20052;-73
2021/06/25 10:30:42;;;;;;;23.48;11.48;;;;;;;19.11;67.76;101474.41;6272323;28;20041;-73
2021/06/25 10:33:46;;;;;;;19.45;12.18;;;;;;;19.50;64.84;101474.91;6272154;28;20049;-73
2021/06/25 10:36:50;;;;;;;16.55;11.50;;;;;;;19.54;63.04;101473.72;6273448;28;20049;-73
2021/06/25 10:39:52;;;;;;;14.05;10.05;;;;;;;19.50;66.10;101483.75;6271926;28;20488;-73
2021/06/25 10:42:55;;;;;;;15.43;9.95;;;;;;;19.65;62.70;101472.88;6271977;28;20050;-73
2021/06/25 10:45:57;;;;;;;15.82;10.73;;;;;;;19.71;63.07;101470.59;6272087;28;20053;-73
2021/06/25 10:49:00;;;;;;;13.07;9.00;;;;;;;19.66;63.13;101470.06;6271814;28;20060;-73
2021/06/25 10:52:09;;;;;;;14.00;8.95;;;;;;;19.79;65.67;101477.09;6271835;28;20052;-73
2021/06/25 10:55:11;;;;;;;;;;;;;;;20.18;61.34;101468.53;6272223;28;20060;-71
2021/06/25 10:58:22;;;;;;;14.68;9.43;;;;;;;20.10;58.59;101464.78;6271940;28;20007;-75
2021/06/25 11:01:49;;;;;;;13.88;9.23;;;;;;;20.28;57.68;101469.47;6271668;28;20045;-73
2021/06/25 11:04:50;;;;;;;16.15;8.93;;;;;;;19.93;58.28;101455.50;6271704;28;20194;-72
2021/06/25 11:07:52;;;;;;;10.88;8.02;;;;;;;20.03;61.04;101469.78;6272609;28;20524;-74
2021/06/25 11:10:56;;;;;;;13.95;9.00;;;;;;;20.10;58.72;101462.97;6271439;28;20528;-74
2021/06/25 11:13:57;;;;;;;11.35;8.05;;;;;;;19.98;59.80;101470.16;6295370;22;20087;-75
2021/06/25 11:17:00;;;;;;;13.60;8.30;;;;;;;19.96;59.78;101466.75;6275695;28;20056;-75
2021/06/25 11:20:16;;;;;;;12.57;7.40;;;;;;;19.90;59.43;101466.44;6296043;28;20056;-75
2021/06/25 11:23:22;;;;;;;15.75;9.77;;;;;;;20.17;55.31;101464.16;6275157;28;20045;-76
2021/06/25 11:26:25;;;;;;;14.63;8.75;;;;;;;20.33;55.71;101473.56;6270821;28;20115;-72
2021/06/25 11:29:43;;;;;;;14.93;9.02;;;;;;;20.54;52.99;101471.81;6271005;28;20045;-77
2021/06/25 11:32:46;;;;;;;13.77;8.75;;;;;;;20.84;53.70;101473.69;6271236;28;20140;-73
2021/06/25 11:35:47;;;;;;;12.73;8.48;;;;;;;21.23;52.35;101472.13;6272153;28;20052;-73
2021/06/25 11:38:57;;;;;;;12.27;8.30;;;;;;;21.63;50.75;101462.47;6296085;28;20048;-73
2021/06/25 11:42:05;;;;;;;12.95;7.93;;;;;;;22.08;49.13;101470.88;6295814;28;20055;-73
2021/06/25 11:45:08;;;;;;;15.07;8.65;;;;;;;22.37;47.06;101468.25;6296304;28;20685;-73
2021/06/25 11:48:11;;;;;;;13.40;7.50;;;;;;;22.46;49.01;101459.34;6293861;28;20036;-72
2021/06/25 11:51:13;;;;;;;11.70;8.02;;;;;;;22.92;45.15;101462.28;6295692;28;20045;-74
2021/06/25 11:54:19;;;;;;;10.32;7.18;;;;;;;22.89;43.08;101451.81;6295722;28;20400;-74
2021/06/25 11:57:22;;;;;;;8.10;5.75;;;;;;;23.29;44.86;101457.78;6272476;28;20527;-73
2021/06/25 12:00:27;;;;;;;6.75;4.65;;;;;;;23.73;47.40;101454.50;6295043;28;20037;-73
2021/06/25 12:03:42;;;;;;;7.78;4.03;;;;;;;23.97;44.81;101446.72;6295547;28;20045;-75
2021/06/25 12:06:48;;;;;;;9.52;5.15;;;;;;;24.14;38.36;101444.22;6295378;28;20056;-75
2021/06/25 12:09:51;;;;;;;7.35;5.07;;;;;;;23.98;39.25;101439.50;6294704;28;20045;-73
2021/06/25 12:12:57;;;;;;;7.22;4.45;;;;;;;23.94;38.30;101443.50;6294858;28;20044;-74
2021/06/25 12:16:00;;;;;;;9.50;4.65;;;;;;;23.55;37.93;101451.75;6295435;28;20515;-74
2021/06/25 12:19:03;;;;;;;6.47;4.20;;;;;;;23.17;37.42;101467.03;6295449;28;20041;-73
2021/06/25 12:22:06;;;;;;;15.40;3.78;;;;;;;22.90;35.65;101456.25;6295491;28;20044;-74
2021/06/25 12:25:09;;;;;;;7.93;4.03;;;;;;;22.84;38.15;101452.25;6295630;28;20633;-73
2021/06/25 12:28:12;;;;;;;5.13;3.47;;;;;;;22.85;34.63;101453.97;6295617;28;20045;-73
2021/06/25 12:31:19;;;;;;;3.72;2.88;;;;;;;22.73;33.99;101447.91;6270709;28;20060;-75
2021/06/25 12:34:21;;;;;;;5.43;3.50;;;;;;;22.60;32.38;101455.41;6270725;28;20049;-76
2021/06/25 12:37:23;;;;;;;4.63;2.97;;;;;;;22.60;32.31;101463.44;6270231;28;20140;-74
2021/06/25 12:40:48;;;;;;;3.47;2.53;;;;;;;22.35;31.41;101456.84;6275203;28;20045;-74
2021/06/25 12:43:53;;;;;;;4.85;1.92;;;;;;;22.39;33.91;101458.25;6275040;28;20056;-74
2021/06/25 12:47:02;;;;;;;3.55;2.35;;;;;;;22.55;32.91;101452.31;6275078;28;20056;-74
2021/06/25 12:50:06;;;;;;;3.22;2.13;;;;;;;22.80;30.29;101458.91;6273152;28;20057;-75
2021/06/25 12:53:13;;;;;;;4.55;2.20;;;;;;;22.74;31.40;101459.47;6274689;28;20397;-75
2021/06/25 12:56:18;;;;;;;4.60;2.08;;;;;;;22.85;32.29;101461.16;6274468;28;20515;-75
2021/06/25 12:59:20;;;;;;;3.28;2.22;;;;;;;23.26;36.00;101463.47;6274392;28;20049;-75
2021/06/25 13:02:22;;;;;;;4.00;1.77;;;;;;;23.51;30.33;101451.19;6274332;28;20052;-75
2021/06/25 13:05:32;;;;;;;3.80;2.00;;;;;;;23.75;29.70;101450.69;6274654;28;20056;-75
2021/06/25 13:08:42;;;;;;;3.80;2.00;;;;;;;24.03;32.28;101454.19;6272742;28;20436;-74
2021/06/25 13:11:44;;;;;;;3.83;1.83;;;;;;;24.10;32.90;101451.72;6274044;28;20049;-75
2021/06/25 13:14:47;;;;;;;3.28;2.17;;;;;;;24.24;28.50;101447.66;6274058;28;20064;-75
2021/06/25 13:17:50;;;;;;;4.65;2.75;;;;;;;24.67;28.22;101451.41;6274326;28;20397;-74
2021/06/25 13:21:34;;;;;;;7.28;2.80;;;;;;;24.08;29.90;101447.50;6273791;28;20041;-75
2021/06/25 13:25:04;;;;;;;6.72;2.40;;;;;;;23.97;29.04;101449.41;6274160;28;20144;-75
2021/06/25 13:28:06;;;;;;;7.57;2.40;;;;;;;23.97;32.73;101445.88;6273882;28;20055;-75
2021/06/25 13:31:08;;;;;;;2.35;1.90;;;;;;;23.93;31.23;101442.63;6273984;28;20052;-75
2021/06/25 13:34:10;;;;;;;4.80;2.08;;;;;;;23.89;31.58;101443.97;6273701;28;20045;-73
2021/06/25 13:37:11;;;;;;;4.80;2.35;;;;;;;23.55;33.41;101436.50;6273701;28;20053;-75
2021/06/25 13:40:17;;;;;;;3.88;2.55;;;;;;;23.66;31.48;101445.34;6272967;28;20052;-75
2021/06/25 13:43:20;;;;;;;4.00;2.50;;;;;;;23.52;32.84;101449.34;6273639;28;20500;-74
2021/06/25 13:46:24;;;;;;;2.65;1.90;;;;;;;23.46;29.66;101447.28;6273529;28;20056;-75
2021/06/25 13:49:26;;;;;;;3.20;2.10;;;;;;;23.44;32.88;101460.84;6273076;28;20051;-75
2021/06/25 13:52:28;;;;;;;3.95;2.88;;;;;;;23.21;29.74;101455.03;6273484;28;20051;-74
2021/06/25 13:55:31;;;;;;;3.28;2.30;;;;;;;23.14;32.33;101466.47;6273409;28;20045;-75
2021/06/25 13:58:33;;;;;;;5.47;2.10;;;;;;;22.95;29.66;101460.16;6273110;28;20071;-75
2021/06/25 14:01:36;;;;;;;2.75;2.30;;;;;;;22.96;29.87;101455.66;6273033;28;20045;-75
2021/06/25 14:04:38;;;;;;;3.47;1.88;;;;;;;23.03;29.62;101457.63;6272921;28;20048;-75